Time;durP1;ratioP1;P1;durP2;ratioP2;P2;SDS_P1;SDS_P2;PMS_P1;PMS_P2;Temp;Humidity;BMP_temperature;BMP_pressure;BME280_temperature;BME280_humidity;BME280_pressure;Samples;Min_cycle;Max_cycle;Signal;HPM_P1;HPM_P2
2023/04/20 00:02:16;;;;;;;;;;;;;;;9.03;84.20;99828.84;4468447;32;33323;-76
2023/04/20 00:04:44;;;;;;;;;;;;;;;8.59;85.19;99824.81;4466577;32;33350;-77
2023/04/20 00:07:12;;;;;;;;;;;;;;;8.74;85.46;99824.75;4461544;32;35306;-78
2023/04/20 00:09:40;;;;;;;;;;;;;;;8.87;85.02;99832.31;4464619;32;34415;-77
2023/04/20 00:12:07;;;;;;;;;;;;;;;8.88;84.81;99821.16;4467522;32;34197;-76
2023/04/20 00:14:34;;;;;;;;;;;;;;;8.88;84.90;99822.88;4465554;32;34105;-77
2023/04/20 00:17:02;;;;;;;;;;;;;;;8.91;84.78;99828.22;4467764;32;33948;-76
2023/04/20 00:19:32;;;;;;;;;;;;;;;8.89;84.75;99822.09;4465888;32;35002;-76
2023/04/20 00:21:59;;;;;;;;;;;;;;;9.03;83.97;99818.50;4467940;32;33607;-77
2023/04/20 00:24:27;;;;;;;;;;;;;;;9.02;83.41;99820.19;4453767;32;34219;-76
2023/04/20 00:26:54;;;;;;;;;;;;;;;9.35;82.17;99819.22;4466261;32;33424;-77
2023/04/20 00:29:21;;;;;;;;;;;;;;;10.37;77.45;99814.62;4464324;32;34074;-76
2023/04/20 00:31:49;;;;;;;;;;;;;;;10.79;75.47;99814.78;4466605;32;32842;-76
2023/04/20 00:34:16;;;;;;;;;;;;;;;9.86;79.09;99821.72;4467361;32;34324;-77
2023/04/20 00:36:43;;;;;;;;;;;;;;;9.98;79.80;99815.41;4467979;32;33881;-76
2023/04/20 00:39:10;;;;;;;;;;;;;;;10.65;75.16;99811.59;4468427;32;34138;-76
2023/04/20 00:41:38;;;;;;;;;;;;;;;11.35;71.67;99811.13;4468386;32;33504;-76
2023/04/20 00:44:06;;;;;;;;;;;;;;;11.43;70.96;99815.75;4468925;32;34938;-77
2023/04/20 00:46:34;;;;;;;;;;;;;;;11.35;71.16;99811.13;4468676;32;33870;-76
2023/04/20 00:49:03;;;;;;;;;;;;;;;11.40;71.22;99811.34;4467880;32;34206;-77
2023/04/20 00:51:31;;;;;;;;;;;;;;;11.35;70.78;99812.84;4468209;32;34330;-77
2023/04/20 00:53:59;;;;;;;;;;;;;;;10.73;73.35;99815.41;4454147;32;34134;-76
2023/04/20 00:56:27;;;;;;;;;;;;;;;10.06;76.75;99809.69;4468461;32;34006;-77
2023/04/20 00:58:54;;;;;;;;;;;;;;;10.62;74.90;99808.84;4467025;32;35129;-75
2023/04/20 01:01:21;;;;;;;;;;;;;;;10.30;77.00;99810.87;4459965;32;34191;-77
2023/04/20 01:03:48;;;;;;;;;;;;;;;11.10;73.22;99809.22;4471908;32;34317;-77
2023/04/20 01:06:16;;;;;;;;;;;;;;;10.86;74.38;99814.25;4454354;32;35698;-78
2023/04/20 01:08:45;;;;;;;;;;;;;;;10.97;73.59;99814.69;4464224;32;34943;-78
2023/04/20 01:11:13;;;;;;;;;;;;;;;10.69;74.61;99808.31;4467813;32;33453;-77
2023/04/20 01:13:40;;;;;;;;;;;;;;;10.69;74.47;99812.63;4464205;32;33793;-77
2023/04/20 01:16:07;;;;;;;;;;;;;;;10.53;75.11;99808.47;4463793;32;35122;-76
2023/04/20 01:18:46;;;;;;;;;;;;;;;10.37;75.86;99823.31;4445642;32;34320;-77
2023/04/20 01:21:14;;;;;;;;;;;;;;;9.84;77.93;99826.81;4461544;32;33602;-77
2023/04/20 01:23:41;;;;;;;;;;;;;;;10.38;76.16;99816.41;4458061;32;34076;-76
2023/04/20 01:26:10;;;;;;;;;;;;;;;10.53;75.31;99813.62;4452552;32;33926;-76
2023/04/20 01:28:37;;;;;;;;;;;;;;;10.12;77.28;99820.34;4426140;32;33936;-76
2023/04/20 01:31:05;;;;;;;;;;;;;;;9.59;80.19;99823.03;4452951;32;33114;-76
2023/04/20 01:33:33;;;;;;;;;;;;;;;10.27;77.15;99815.00;4452826;32;33971;-77
2023/04/20 01:36:00;;;;;;;;;;;;;;;10.17;76.04;99816.28;4442142;32;34131;-76
2023/04/20 01:38:30;;;;;;;;;;;;;;;10.50;74.75;99810.91;4452920;32;34921;-77
2023/04/20 01:41:03;;;;;;;;;;;;;;;9.33;79.82;99816.59;4457794;32;33354;-77
2023/04/20 01:43:31;;;;;;;;;;;;;;;9.46;79.10;99820.63;4453016;32;33693;-77
2023/04/20 01:45:59;;;;;;;;;;;;;;;9.04;81.00;99815.12;4426526;32;34090;-77
2023/04/20 01:48:26;;;;;;;;;;;;;;;8.11;86.38;99816.19;4456647;32;34454;-77
2023/04/20 01:50:53;;;;;;;;;;;;;;;7.72;89.68;99818.31;4449408;32;33272;-77
2023/04/20 01:53:20;;;;;;;;;;;;;;;8.45;87.09;99811.19;4452661;32;34185;-78
2023/04/20 01:55:48;;;;;;;;;;;;;;;8.34;87.72;99813.13;4438788;32;34223;-76
2023/04/20 01:58:17;;;;;;;;;;;;;;;8.44;87.49;99814.56;4449424;32;35226;-77
2023/04/20 02:00:46;;;;;;;;;;;;;;;8.51;86.77;99816.66;4455394;32;32999;-77
2023/04/20 02:03:13;;;;;;;;;;;;;;;8.12;89.19;99816.25;4451995;32;34142;-77
2023/04/20 02:05:41;;;;;;;;;;;;;;;8.24;88.53;99822.06;4452067;32;33987;-78
2023/04/20 02:08:08;;;;;;;;;;;;;;;8.16;89.79;99819.91;4451856;32;34306;-77
2023/04/20 02:10:38;;;;;;;;;;;;;;;8.25;89.31;99823.00;4442342;32;32428;-77
2023/04/20 02:13:05;;;;;;;;;;;;;;;8.15;89.53;99815.53;4469628;32;33910;-78
2023/04/20 02:15:32;;;;;;;;;;;;;;;8.07;89.64;99812.53;4467858;32;34954;-77
2023/04/20 02:18:00;;;;;;;;;;;;;;;8.05;89.49;99821.88;4468332;32;34552;-77
2023/04/20 02:20:27;;;;;;;;;;;;;;;8.22;88.82;99821.09;4477288;32;34239;-76
2023/04/20 02:22:54;;;;;;;;;;;;;;;8.44;86.70;99825.78;4464085;32;33832;-76
2023/04/20 02:25:22;;;;;;;;;;;;;;;8.13;89.34;99825.78;4479983;32;34298;-79
2023/04/20 02:27:49;;;;;;;;;;;;;;;8.41;87.58;99819.53;4466907;32;33843;-77
2023/04/20 02:30:17;;;;;;;;;;;;;;;8.06;89.16;99832.28;4475262;32;34225;-77
2023/04/20 02:32:44;;;;;;;;;;;;;;;7.92;90.20;99825.50;4477675;32;34102;-76
2023/04/20 02:35:15;;;;;;;;;;;;;;;8.13;89.85;99827.47;4472027;32;33567;-77
2023/04/20 02:37:42;;;;;;;;;;;;;;;8.05;89.18;99825.37;4470667;32;34155;-78
2023/04/20 02:40:11;;;;;;;;;;;;;;;8.58;85.47;99812.72;4477985;32;33728;-77
2023/04/20 02:42:39;;;;;;;;;;;;;;;8.07;88.30;99828.94;4453717;32;33192;-77
2023/04/20 02:45:07;;;;;;;;;;;;;;;8.23;87.44;99814.28;4465225;32;34095;-77
2023/04/20 02:47:35;;;;;;;;;;;;;;;8.02;88.67;99822.62;4455853;32;33735;-77
2023/04/20 02:50:02;;;;;;;;;;;;;;;7.80;90.03;99824.78;4455685;32;33489;-76
2023/04/20 02:52:31;;;;;;;;;;;;;;;8.08;88.44;99819.50;4484139;32;32804;-77
2023/04/20 02:54:59;;;;;;;;;;;;;;;7.93;89.21;99823.78;4480267;32;34231;-77
2023/04/20 02:57:26;;;;;;;;;;;;;;;7.75;90.13;99829.69;4465184;32;32933;-77
2023/04/20 02:59:54;;;;;;;;;;;;;;;8.05;88.85;99830.53;4469794;32;34385;-77
2023/04/20 03:02:23;;;;;;;;;;;;;;;7.89;88.76;99833.06;4442613;32;33359;-77
2023/04/20 03:04:51;;;;;;;;;;;;;;;7.85;89.55;99832.00;4469782;32;32458;-77
2023/04/20 03:07:18;;;;;;;;;;;;;;;7.60;91.12;99834.88;4473060;32;34105;-77
2023/04/20 03:09:47;;;;;;;;;;;;;;;7.62;91.04;99835.84;4457097;32;34256;-77
2023/04/20 03:12:15;;;;;;;;;;;;;;;7.68;90.44;99831.03;4456125;32;33760;-78
2023/04/20 03:14:42;;;;;;;;;;;;;;;7.45;92.38;99828.84;4453956;32;34139;-77
2023/04/20 03:17:10;;;;;;;;;;;;;;;7.35;93.02;99829.12;4453811;32;33731;-76
2023/04/20 03:19:38;;;;;;;;;;;;;;;8.04;89.42;99833.03;4453939;32;32942;-76
2023/04/20 03:22:05;;;;;;;;;;;;;;;8.65;85.75;99826.03;4451916;32;34451;-77
2023/04/20 03:24:33;;;;;;;;;;;;;;;8.01;86.86;99830.25;4452699;32;34979;-76
2023/04/20 03:27:00;;;;;;;;;;;;;;;7.53;89.53;99827.56;4448990;32;34285;-77
2023/04/20 03:29:28;;;;;;;;;;;;;;;7.41;90.79;99832.03;4446549;32;34095;-77
2023/04/20 03:31:56;;;;;;;;;;;;;;;7.20;92.19;99829.97;4453944;32;34149;-77
2023/04/20 03:34:23;;;;;;;;;;;;;;;7.15;92.02;99828.84;4453351;32;34076;-76
2023/04/20 03:36:50;;;;;;;;;;;;;;;6.96;93.93;99837.16;4453894;32;34942;-76
2023/04/20 03:39:18;;;;;;;;;;;;;;;7.06;93.13;99836.03;4453038;32;31886;-76
2023/04/20 03:41:45;;;;;;;;;;;;;;;7.38;91.10;99842.16;4453892;32;33737;-77
2023/04/20 03:44:13;;;;;;;;;;;;;;;8.33;86.73;99837.19;4440863;32;33558;-76
2023/04/20 03:46:41;;;;;;;;;;;;;;;7.38;89.72;99843.06;4453906;32;33898;-77
2023/04/20 03:49:08;;;;;;;;;;;;;;;7.63;89.55;99842.78;4453738;32;33318;-76
2023/04/20 03:51:36;;;;;;;;;;;;;;;7.24;92.01;99843.94;4453544;32;34279;-77
2023/04/20 03:54:05;;;;;;;;;;;;;;;7.95;88.14;99853.12;4454223;32;34798;-76
2023/04/20 03:56:32;;;;;;;;;;;;;;;7.48;89.68;99855.69;4452500;32;33058;-75
2023/04/20 03:59:00;;;;;;;;;;;;;;;7.92;87.66;99864.19;4452453;32;32174;-76
2023/04/20 04:01:27;;;;;;;;;;;;;;;7.55;90.42;99856.94;4453316;32;34811;-76
2023/04/20 04:03:56;;;;;;;;;;;;;;;7.16;90.52;99861.53;4452989;32;34175;-77
2023/04/20 04:06:23;;;;;;;;;;;;;;;7.13;92.61;99858.78;4452409;32;33876;-76
2023/04/20 04:08:51;;;;;;;;;;;;;;;7.65;89.79;99859.22;4442623;32;33680;-77
2023/04/20 04:11:19;;;;;;;;;;;;;;;7.46;90.05;99852.12;4459534;32;34113;-77
2023/04/20 04:13:46;;;;;;;;;;;;;;;7.39;89.58;99857.72;4472824;32;33980;-78
2023/04/20 04:16:14;;;;;;;;;;;;;;;7.12;91.58;99853.53;4470280;32;34444;-78
2023/04/20 04:18:42;;;;;;;;;;;;;;;7.09;92.11;99855.13;4475422;32;33655;-77
2023/04/20 04:21:09;;;;;;;;;;;;;;;6.93;93.91;99857.56;4459193;32;33618;-77
2023/04/20 04:23:37;;;;;;;;;;;;;;;6.91;93.69;99853.12;4476418;32;33896;-77
2023/04/20 04:26:05;;;;;;;;;;;;;;;6.74;94.35;99854.69;4481811;32;35034;-76
2023/04/20 04:28:33;;;;;;;;;;;;;;;6.93;93.27;99848.97;4466924;32;33226;-78
2023/04/20 04:31:04;;;;;;;;;;;;;;;6.98;93.04;99845.00;4468919;32;34869;-76
2023/04/20 04:33:33;;;;;;;;;;;;;;;6.78;94.34;99852.41;4473719;32;33908;-77
2023/04/20 04:36:01;;;;;;;;;;;;;;;7.00;92.74;99854.56;4456044;32;33806;-76
2023/04/20 04:38:32;;;;;;;;;;;;;;;7.36;91.43;99854.06;4477590;32;34064;-77
2023/04/20 04:40:59;;;;;;;;;;;;;;;7.09;91.59;99860.28;4469450;32;33741;-78
2023/04/20 04:43:28;;;;;;;;;;;;;;;7.37;91.74;99861.00;4468353;32;33913;-76
2023/04/20 04:45:57;;;;;;;;;;;;;;;7.13;91.19;99856.22;4466912;32;32648;-76
2023/04/20 04:48:25;;;;;;;;;;;;;;;7.11;91.93;99862.97;4473833;32;33651;-76
2023/04/20 04:50:52;;;;;;;;;;;;;;;7.91;89.00;99862.41;4467665;32;32558;-76
2023/04/20 04:53:19;;;;;;;;;;;;;;;7.53;90.51;99867.94;4473277;32;33678;-78
2023/04/20 04:55:47;;;;;;;;;;;;;;;7.26;92.45;99863.87;4465545;32;34016;-76
2023/04/20 04:58:14;;;;;;;;;;;;;;;7.58;91.91;99877.72;4474993;32;33673;-76
2023/04/20 05:00:42;;;;;;;;;;;;;;;7.45;92.15;99872.66;4463506;32;34225;-77
2023/04/20 05:03:10;;;;;;;;;;;;;;;7.34;92.85;99873.72;4466275;32;33779;-77
2023/04/20 05:05:37;;;;;;;;;;;;;;;7.82;91.00;99872.19;4471758;32;34640;-78
2023/04/20 05:08:04;;;;;;;;;;;;;;;7.77;91.39;99871.06;4463762;32;33017;-76
2023/04/20 05:10:32;;;;;;;;;;;;;;;8.63;87.99;99865.47;4470922;32;34964;-78
2023/04/20 05:12:59;;;;;;;;;;;;;;;7.70;91.38;99871.50;4456517;32;33954;-77
2023/04/20 05:15:26;;;;;;;;;;;;;;;7.87;91.82;99875.91;4451812;32;34194;-76
2023/04/20 05:17:54;;;;;;;;;;;;;;;8.35;90.14;99876.88;4453721;32;33610;-77
2023/04/20 05:20:22;;;;;;;;;;;;;;;8.04;90.33;99876.88;4452051;32;34516;-77
2023/04/20 05:22:49;;;;;;;;;;;;;;;8.13;90.51;99869.66;4438996;32;34167;-78
2023/04/20 05:25:17;;;;;;;;;;;;;;;8.44;89.00;99867.09;4452277;32;34201;-76
2023/04/20 05:27:45;;;;;;;;;;;;;;;8.54;87.87;99868.47;4451988;32;33397;-76
2023/04/20 05:30:12;;;;;;;;;;;;;;;8.32;89.31;99874.13;4451876;32;32463;-76
2023/04/20 05:32:49;;;;;;;;;;;;;;;8.31;89.29;99869.78;4451867;32;33741;-77
2023/04/20 05:35:19;;;;;;;;;;;;;;;8.92;87.18;99868.72;4452627;32;33926;-77
2023/04/20 05:37:46;;;;;;;;;;;;;;;9.01;85.82;99871.78;4451866;32;33921;-77
2023/04/20 05:40:14;;;;;;;;;;;;;;;8.39;89.04;99873.66;4445452;32;34270;-77
2023/04/20 05:42:42;;;;;;;;;;;;;;;8.30;89.77;99878.31;4443295;32;35000;-77
2023/04/20 05:45:09;;;;;;;;;;;;;;;8.80;87.56;99876.72;4442265;32;34323;-77
2023/04/20 05:47:37;;;;;;;;;;;;;;;8.67;88.02;99880.31;4452065;32;33713;-76
2023/04/20 05:50:04;;;;;;;;;;;;;;;9.03;87.23;99880.50;4452184;32;34073;-77
2023/04/20 05:52:31;;;;;;;;;;;;;;;9.05;86.06;99878.87;4451676;32;34927;-77
2023/04/20 05:54:59;;;;;;;;;;;;;;;9.38;84.68;99889.19;4452159;32;34241;-77
2023/04/20 05:57:26;;;;;;;;;;;;;;;9.46;84.80;99882.69;4453317;32;33638;-77
2023/04/20 05:59:54;;;;;;;;;;;;;;;9.38;85.57;99889.19;4451312;32;34224;-77
2023/04/20 06:02:22;;;;;;;;;;;;;;;9.65;84.07;99880.22;4454014;32;34063;-77
2023/04/20 06:04:50;;;;;;;;;;;;;;;10.04;82.12;99890.75;4442842;32;34175;-77
2023/04/20 06:07:18;;;;;;;;;;;;;;;10.60;79.94;99889.09;4454108;32;34837;-76
2023/04/20 06:09:45;;;;;;;;;;;;;;;10.97;78.71;99883.00;4454146;32;34252;-77
2023/04/20 06:12:12;;;;;;;;;;;;;;;11.30;77.31;99895.66;4432952;32;32353;-77
2023/04/20 06:14:40;;;;;;;;;;;;;;;11.81;74.70;99892.59;4468729;32;34049;-77
2023/04/20 06:17:07;;;;;;;;;;;;;;;12.30;72.40;99886.78;4469474;32;34338;-75
2023/04/20 06:19:37;;;;;;;;;;;;;;;12.85;69.42;99887.13;4466042;32;33317;-77
2023/04/20 06:22:08;;;;;;;;;;;;;;;12.84;70.10;99888.84;4452124;32;34052;-77
2023/04/20 06:24:35;;;;;;;;;;;;;;;12.72;70.19;99883.19;4455240;32;32708;-77
2023/04/20 06:27:03;;;;;;;;;;;;;;;12.81;70.52;99885.25;4468878;32;34524;-77
2023/04/20 06:29:30;;;;;;;;;;;;;;;12.37;70.78;99888.81;4441210;32;34828;-76
2023/04/20 06:31:58;;;;;;;;;;;;;;;12.08;71.69;99895.44;4469073;32;34210;-77
2023/04/20 06:34:25;;;;;;;;;;;;;;;12.44;70.07;99894.22;4468957;32;34490;-76
2023/04/20 06:36:53;;;;;;;;;;;;;;;12.27;71.16;99891.88;4468830;32;33623;-75
2023/04/20 06:39:20;;;;;;;;;;;;;;;12.77;68.35;99890.34;4468458;32;34377;-79
2023/04/20 06:41:48;;;;;;;;;;;;;;;12.79;68.97;99887.78;4468509;32;34129;-78
2023/04/20 06:44:15;;;;;;;;;;;;;;;13.05;67.12;99891.34;4469334;32;34496;-78
2023/04/20 06:46:43;;;;;;;;;;;;;;;13.87;64.95;99889.88;4468612;32;33597;-78
2023/04/20 06:49:10;;;;;;;;;;;;;;;13.84;65.78;99897.56;4469319;32;34206;-79
2023/04/20 06:51:38;;;;;;;;;;;;;;;14.03;63.71;99892.97;4469013;32;34274;-78
2023/04/20 06:54:05;;;;;;;;;;;;;;;13.81;65.05;99889.66;4455732;32;34219;-77
2023/04/20 06:56:33;;;;;;;;;;;;;;;13.75;64.48;99895.56;4469482;32;31888;-77
2023/04/20 06:59:01;;;;;;;;;;;;;;;13.41;64.39;99896.13;4468519;32;33902;-77
2023/04/20 07:01:29;;;;;;;;;;;;;;;13.63;63.28;99894.25;4455948;32;32940;-76
2023/04/20 07:03:57;;;;;;;;;;;;;;;14.30;60.91;99899.03;4442480;32;34259;-76
2023/04/20 07:06:26;;;;;;;;;;;;;;;14.25;60.64;99899.75;4467706;32;33040;-76
2023/04/20 07:08:54;;;;;;;;;;;;;;;14.20;59.63;99901.31;4469212;32;33963;-76
2023/04/20 07:11:22;;;;;;;;;;;;;;;14.12;58.50;99898.47;4447742;32;34700;-76
2023/04/20 07:13:50;;;;;;;;;;;;;;;15.07;57.32;99890.94;4445341;32;34367;-76
2023/04/20 07:16:17;;;;;;;;;;;;;;;15.00;57.38;99888.97;4453690;32;33284;-77
2023/04/20 07:18:45;;;;;;;;;;;;;;;15.04;57.63;99889.94;4453841;32;33613;-77
2023/04/20 07:21:14;;;;;;;;;;;;;;;14.55;58.45;99892.88;4454101;32;34443;-77
2023/04/20 07:23:41;;;;;;;;;;;;;;;14.80;57.62;99895.37;4453388;32;34949;-78
2023/04/20 07:26:11;;;;;;;;;;;;;;;15.26;54.87;99891.41;4444738;32;33335;-77
2023/04/20 07:28:38;;;;;;;;;;;;;;;15.70;53.45;99895.22;4453359;32;33736;-77
2023/04/20 07:31:06;;;;;;;;;;;;;;;15.32;52.79;99897.69;4451937;32;33897;-77
2023/04/20 07:33:34;;;;;;;;;;;;;;;15.60;54.38;99892.31;4453978;32;34134;-76
2023/04/20 07:36:03;;;;;;;;;;;;;;;15.87;52.06;99893.06;4453319;32;33711;-77
2023/04/20 07:38:31;;;;;;;;;;;;;;;16.81;50.85;99883.88;4450301;32;34013;-77
2023/04/20 07:40:59;;;;;;;;;;;;;;;17.69;50.12;99883.81;4451507;32;34387;-77
2023/04/20 07:43:26;;;;;;;;;;;;;;;18.63;46.71;99875.66;4449390;32;34017;-75
2023/04/20 07:45:53;;;;;;;;;;;;;;;20.22;41.73;99880.84;4445362;32;33447;-75
2023/04/20 07:48:20;;;;;;;;;;;;;;;21.80;38.82;99883.22;4452919;32;34480;-75
2023/04/20 07:50:47;;;;;;;;;;;;;;;23.05;35.78;99879.50;4453059;32;35337;-75
2023/04/20 07:53:15;;;;;;;;;;;;;;;23.80;34.48;99881.69;4453326;32;34020;-75
2023/04/20 07:55:43;;;;;;;;;;;;;;;24.73;31.60;99876.38;4448819;32;33599;-76
2023/04/20 07:58:11;;;;;;;;;;;;;;;25.67;31.37;99873.34;4453656;32;34181;-75
2023/04/20 08:00:38;;;;;;;;;;;;;;;26.24;29.81;99868.88;4453772;32;34162;-75
2023/04/20 08:03:06;;;;;;;;;;;;;;;26.34;29.36;99874.88;4453642;32;34287;-76
2023/04/20 08:05:33;;;;;;;;;;;;;;;26.02;29.04;99869.25;4454248;32;34761;-75
2023/04/20 08:08:00;;;;;;;;;;;;;;;25.95;28.32;99867.59;4439888;32;33854;-75
2023/04/20 08:10:28;;;;;;;;;;;;;;;25.50;29.46;99864.78;4456720;32;34789;-75
2023/04/20 08:12:55;;;;;;;;;;;;;;;23.20;32.55;99867.94;4449905;32;35168;-76
2023/04/20 08:15:23;;;;;;;;;;;;;;;25.74;30.96;99867.94;4454408;32;33575;-76
2023/04/20 08:17:51;;;;;;;;;;;;;;;24.44;30.98;99876.69;4452144;32;34925;-75
2023/04/20 08:20:19;;;;;;;;;;;;;;;22.99;31.99;99875.09;4453357;32;33877;-75
2023/04/20 08:22:46;;;;;;;;;;;;;;;23.00;33.77;99868.03;4453126;32;33930;-76
2023/04/20 08:25:14;;;;;;;;;;;;;;;20.56;38.94;99870.50;4439233;32;32963;-75
2023/04/20 08:27:41;;;;;;;;;;;;;;;21.00;39.02;99877.75;4446603;32;34843;-75
2023/04/20 08:30:08;;;;;;;9.68;5.80;;;;;;;22.71;34.70;99869.03;4441726;32;34860;-75
2023/04/20 08:32:36;;;;;;;8.40;4.70;;;;;;;23.62;32.09;99866.78;4440862;32;33747;-74
2023/04/20 08:35:04;;;;;;;8.68;5.82;;;;;;;24.29;31.45;99864.47;4453545;32;33206;-75
2023/04/20 08:37:32;;;;;;;8.63;5.50;;;;;;;21.74;34.85;99861.25;4453015;32;33581;-75
2023/04/20 08:40:01;;;;;;;9.40;6.00;;;;;;;20.32;37.13;99859.84;4450604;32;33310;-75
2023/04/20 08:42:30;;;;;;;8.13;4.97;;;;;;;20.83;38.28;99863.66;4450051;32;33896;-74
2023/04/20 08:44:58;;;;;;;7.55;4.68;;;;;;;21.64;36.89;99868.28;4433681;32;34344;-77
2023/04/20 08:47:26;;;;;;;;;;;;;;;21.83;35.55;99865.63;4452447;32;34571;-75
2023/04/20 08:49:54;;;;;;;;;;;;;;;22.41;35.24;99862.97;4452453;32;34940;-75
2023/04/20 08:52:21;;;;;;;;;;;;;;;23.54;31.55;99863.31;4436707;32;34092;-74
2023/04/20 08:54:49;;;;;;;;;;;;;;;23.78;31.85;99866.66;4453361;32;34209;-75
2023/04/20 08:57:24;;;;;;;;;;;;;;;21.92;35.51;99860.34;4443680;32;33788;-78
2023/04/20 08:59:53;;;;;;;;;;;;;;;21.84;35.17;99862.13;4447619;32;32058;-75
2023/04/20 09:02:21;;;;;;;;;;;;;;;22.15;35.76;99858.56;4437034;32;34551;-75
2023/04/20 09:04:49;;;;;;;;;;;;;;;20.08;37.92;99866.69;4452758;32;33802;-74
2023/04/20 09:07:19;;;;;;;;;;;;;;;20.05;38.98;99861.44;4416464;32;792765;-77
2023/04/20 09:09:56;;;;;;;;;;;;;;;20.00;40.41;99863.16;4452326;32;34259;-74
2023/04/20 09:12:24;;;;;;;;;;;;;;;20.92;37.41;99857.53;4446092;32;35263;-74
2023/04/20 09:14:52;;;;;;;;;;;;;;;20.84;37.94;99856.63;4444091;32;34123;-74
2023/04/20 09:17:32;;;;;;;;;;;;;;;19.53;41.62;99866.19;4451441;32;34748;-73
2023/04/20 09:19:59;;;;;;;;;;;;;;;20.09;39.33;99863.22;4451696;32;35000;-74
2023/04/20 09:22:34;;;;;;;;;;;;;;;21.18;35.32;99858.50;4445394;32;34156;-74
2023/04/20 09:25:11;;;;;;;;;;;;;;;19.51;38.86;99860.06;4442992;32;33638;-76
2023/04/20 09:27:39;;;;;;;;;;;;;;;19.30;38.46;99859.00;4451853;32;33723;-77
2023/04/20 09:30:08;;;;;;;;;;;;;;;19.27;38.66;99858.94;4452960;32;34101;-78
2023/04/20 09:32:35;;;;;;;;;;;;;;;19.71;38.54;99855.87;4453996;32;33233;-77
2023/04/20 09:35:02;;;;;;;;;;;;;;;20.57;36.71;99851.22;4450374;32;32989;-78
2023/04/20 09:37:30;;;;;;;;;;;;;;;21.23;36.08;99852.34;4455060;32;34169;-77
2023/04/20 09:39:58;;;;;;;;;;;;;;;21.28;36.17;99851.50;4456290;32;34145;-77
2023/04/20 09:42:26;;;;;;;;;;;;;;;20.83;35.93;99853.12;4453166;32;34214;-78
2023/04/20 09:44:53;;;;;;;;;;;;;;;21.12;35.03;99849.72;4456566;32;33200;-77
2023/04/20 09:47:22;;;;;;;;;;;;;;;21.68;34.86;99846.31;4455022;32;34670;-76
2023/04/20 09:49:49;;;;;;;;;;;;;;;21.07;37.81;99851.44;4457446;32;35073;-77
2023/04/20 09:52:17;;;;;;;;;;;;;;;20.77;40.23;99853.09;4437803;32;34451;-78
2023/04/20 09:54:45;;;;;;;;;;;;;;;19.48;41.60;99857.41;4454131;32;33057;-76
2023/04/20 09:57:12;;;;;;;;;;;;;;;20.62;41.60;99843.38;4447435;32;33965;-77
2023/04/20 09:59:45;;;;;;;;;;;;;;;21.14;39.81;99851.47;4457624;32;34725;-76
2023/04/20 10:02:12;;;;;;;;;;;;;;;19.45;41.46;99848.66;4454850;32;34428;-76
2023/04/20 10:04:56;;;;;;;;;;;;;;;19.59;42.16;99851.38;4457560;32;33526;-76
2023/04/20 10:07:27;;;;;;;;;;;;;;;20.69;39.40;99839.03;4457949;32;33954;-76
2023/04/20 10:10:02;;;;;;;;;;;;;;;19.95;40.92;99846.44;4457856;32;33580;-76
2023/04/20 10:12:29;;;;;;;;;;;;;;;20.05;39.17;99840.41;4456648;32;34236;-77
2023/04/20 10:14:59;;;;;;;;;;;;;;;18.64;40.78;99847.72;4469276;32;33421;-76
2023/04/20 10:17:30;;;;;;;;;;;;;;;19.72;42.15;99847.16;4473135;32;33753;-76
2023/04/20 10:19:58;;;;;;;;;;;;;;;18.86;43.24;99846.25;4461714;32;34813;-76
2023/04/20 10:22:31;;;;;;;;;;;;;;;19.64;40.60;99848.78;4464271;32;33983;-78
2023/04/20 10:25:00;;;;;;;;;;;;;;;19.64;40.07;99844.44;4458657;32;33214;-76
2023/04/20 10:27:27;;;;;;;;;;;;;;;20.00;38.86;99836.84;4473050;32;34173;-76
2023/04/20 10:29:54;;;;;;;;;;;;;;;20.21;37.80;99836.13;4467718;32;33462;-76
2023/04/20 10:32:28;;;;;;;;;;;;;;;17.98;42.68;99836.28;4471682;32;35223;-77
2023/04/20 10:35:02;;;;;;;;;;;;;;;18.70;42.10;99829.41;4472920;32;33539;-76
2023/04/20 10:37:30;;;;;;;;;;;;;;;19.31;41.39;99830.97;4473037;32;35208;-77
2023/04/20 10:39:58;;;;;;;;;;;;;;;20.10;40.65;99822.88;4472152;32;33743;-76
2023/04/20 10:42:25;;;;;;;;;;;;;;;19.99;41.02;99827.19;4466694;32;34998;-77
2023/04/20 10:44:53;;;;;;;;;;;;;;;19.51;39.54;99826.81;4469143;32;34339;-77
2023/04/20 10:47:28;;;;;;;;;;;;;;;20.15;40.34;99820.31;4460366;32;34834;-77
2023/04/20 10:50:06;;;;;;;;;;;;;;;19.37;42.01;99824.06;4469769;32;34643;-77
2023/04/20 10:52:35;;;;;;;;;;;;;;;20.28;40.20;99811.63;4469354;32;34126;-77
2023/04/20 10:55:03;;;;;;;;;;;;;;;20.66;38.72;99815.31;4469453;32;33656;-77
2023/04/20 10:57:31;;;;;;;;;;;;;;;20.15;39.23;99802.78;4469417;32;34075;-76
2023/04/20 10:59:59;;;;;;;;;;;;;;;20.95;38.13;99812.78;4469976;32;34020;-77
2023/04/20 11:02:26;;;;;;;;;;;;;;;20.17;39.05;99808.91;4467662;32;34529;-76
2023/04/20 11:04:59;;;;;;;;;;;;;;;20.19;39.58;99801.91;4469786;32;33464;-78
2023/04/20 11:07:27;;;;;;;;;;;;;;;19.71;40.11;99803.31;4450575;32;32979;-77
2023/04/20 11:09:55;;;;;;;;;;;;;;;19.14;41.87;99801.91;4469565;32;33719;-78
2023/04/20 11:12:22;;;;;;;;;;;;;;;19.79;42.61;99806.03;4464550;32;34346;-78
2023/04/20 11:14:59;;;;;;;;;;;;;;;19.25;43.11;99809.03;4441633;32;32829;-77
2023/04/20 11:17:33;;;;;;;;;;;;;;;20.47;40.88;99804.69;4465103;32;33762;-79
2023/04/20 11:20:18;;;;;;;;;;;;;;;20.85;38.69;99797.84;4467066;32;34390;-79
2023/04/20 11:22:55;;;;;;;;;;;;;;;20.55;39.01;99796.81;4466230;32;34330;-78
2023/04/20 11:25:23;;;;;;;;;;;;;;;20.38;40.00;99800.25;4461626;32;33478;-78
2023/04/20 11:27:50;;;;;;;;;;;;;;;20.28;41.37;99793.22;4462895;32;34297;-78
2023/04/20 11:30:18;;;;;;;;;;;;;;;20.77;38.67;99796.06;4466872;32;34034;-78
2023/04/20 11:32:52;;;;;;;;;;;;;;;20.70;39.57;99790.78;4466893;32;34207;-79
2023/04/20 11:35:19;;;;;;;;;;;;;;;21.05;39.40;99790.84;4454868;32;34939;-79
2023/04/20 11:37:50;;;;;;;;;;;;;;;21.77;37.02;99785.66;4468776;32;34482;-78
2023/04/20 11:40:18;;;;;;;;;;;;;;;21.70;38.07;99786.53;4468950;32;34360;-78
2023/04/20 11:42:45;;;;;;;;;;;;;;;20.57;38.09;99782.81;4453910;32;33582;-78
2023/04/20 11:45:12;;;;;;;;;;;;;;;20.93;38.29;99783.81;4457772;32;33486;-80
2023/04/20 11:47:39;;;;;;;;;;;;;;;21.36;37.04;99785.63;4469855;32;34433;-80
2023/04/20 11:50:09;;;;;;;;;;;;;;;21.66;35.25;99781.28;4457823;32;34102;-78
2023/04/20 11:52:36;;;;;;;;;;;;;;;22.14;32.66;99782.97;4457317;32;35129;-78
2023/04/20 11:55:04;;;;;;;;;;;;;;;22.17;32.75;99774.16;4467807;32;32802;-77
2023/04/20 11:57:33;;;;;;;;;;;;;;;21.82;34.38;99792.69;4462077;32;34169;-77
2023/04/20 12:00:00;;;;;;;;;;;;;;;20.96;36.88;99781.19;4470064;32;33570;-79
2023/04/20 12:02:28;;;;;;;;;;;;;;;21.10;35.05;99782.97;4469271;32;34200;-78
2023/04/20 12:04:56;;;;;;;;;;;;;;;20.03;35.80;99784.31;4469713;32;34231;-78
2023/04/20 12:07:23;;;;;;;;;;;;;;;20.22;35.85;99778.28;4466970;32;34206;-79
2023/04/20 12:09:50;;;;;;;;;;;;;;;20.37;38.12;99779.19;4469294;32;33627;-79
2023/04/20 12:12:18;;;;;;;;;;;;;;;20.14;38.08;99782.59;4470247;32;34792;-77
2023/04/20 12:14:45;;;;;;;;;;;;;;;21.25;34.90;99777.75;4467055;32;34381;-78
2023/04/20 12:17:13;;;;;;;;;;;;;;;19.45;36.05;99785.59;4469276;32;33816;-79
2023/04/20 12:19:40;;;;;;;;;;;;;;;19.04;36.92;99782.56;4470069;32;34228;-77
2023/04/20 12:22:07;;;;;;;;;;;;;;;20.05;35.63;99777.31;4468834;32;34286;-78
2023/04/20 12:24:34;;;;;;;;;;;;;;;21.04;35.53;99772.44;4469547;32;33315;-80
2023/04/20 12:27:03;;;;;;;;;;;;;;;20.61;36.79;99767.94;4469205;32;34540;-78
2023/04/20 12:29:31;;;;;;;;;;;;;;;20.37;39.51;99773.94;4469410;32;34182;-80
2023/04/20 12:31:59;;;;;;;;;;;;;;;20.25;40.18;99777.41;4469280;32;34467;-79
2023/04/20 12:34:26;;;;;;;;;;;;;;;20.15;40.18;99768.59;4469957;32;33611;-80
2023/04/20 12:36:54;;;;;;;;;;;;;;;20.54;39.41;99761.72;4470163;32;34635;-79
2023/04/20 12:39:21;;;;;;;;;;;;;;;20.82;37.57;99761.84;4469557;32;35026;-78
2023/04/20 12:41:48;;;;;;;;;;;;;;;20.83;37.97;99766.25;4470411;32;35174;-76
2023/04/20 12:44:16;;;;;;;;;;;;;;;20.39;38.10;99759.03;4469878;32;34218;-78
2023/04/20 12:46:44;;;;;;;;;;;;;;;20.80;37.51;99768.84;4469838;32;33813;-80
2023/04/20 12:49:11;;;;;;;;;;;;;;;20.75;38.10;99765.34;4469514;32;34866;-77
2023/04/20 12:51:39;;;;;;;;;;;;;;;19.97;40.56;99755.31;4469197;32;34627;-77
2023/04/20 12:54:07;;;;;;;;;;;;;;;19.75;39.72;99760.44;4469058;32;33579;-78